createdAt,value
2024-01-20T00:00:14.957Z,100503.77
2024-01-20T00:02:42.167Z,100504.55
2024-01-20T00:05:11.201Z,100499.13
2024-01-20T00:07:40.332Z,100493.66
2024-01-20T00:10:12.431Z,100493.88
2024-01-20T00:12:41.801Z,100493.39
2024-01-20T00:15:10.245Z,100489.86
2024-01-20T00:17:39.216Z,100485.27
2024-01-20T00:20:07.164Z,100484.80
2024-01-20T00:22:34.030Z,100486.85
2024-01-20T00:25:03.340Z,100486.37
2024-01-20T00:27:31.326Z,100489.75
2024-01-20T00:29:58.276Z,100488.39
2024-01-20T00:32:25.053Z,100489.61
2024-01-20T00:35:00.545Z,100488.08
2024-01-20T00:37:37.917Z,100481.95
2024-01-20T00:40:06.535Z,100473.72
2024-01-20T00:42:33.483Z,100469.48
2024-01-20T00:45:00.470Z,100469.73
2024-01-20T00:47:27.234Z,100471.92
2024-01-20T00:49:54.400Z,100466.90
2024-01-20T00:52:21.048Z,100464.71
2024-01-20T00:54:47.685Z,100473.06
2024-01-20T00:57:14.562Z,100474.77
2024-01-20T00:59:41.581Z,100472.08
2024-01-20T01:02:08.472Z,100470.04
2024-01-20T01:04:35.386Z,100466.61
2024-01-20T01:07:02.195Z,100465.06
2024-01-20T01:09:28.816Z,100465.92
2024-01-20T01:11:55.644Z,100465.73
2024-01-20T01:14:22.718Z,100464.74
2024-01-20T01:16:49.494Z,100458.34
2024-01-20T01:19:16.990Z,100457.60
2024-01-20T01:21:43.643Z,100453.52
2024-01-20T01:24:10.500Z,100448.40
2024-01-20T01:26:37.492Z,100448.81
2024-01-20T01:29:05.871Z,100446.38
2024-01-20T01:31:32.911Z,100443.11
2024-01-20T01:33:59.599Z,100442.45
2024-01-20T01:36:26.263Z,100436.70
2024-01-20T01:38:52.886Z,100437.91
2024-01-20T01:41:20.687Z,100437.69
2024-01-20T01:43:47.741Z,100441.56
2024-01-20T01:46:14.949Z,100440.20
2024-01-20T01:48:41.617Z,100442.13
2024-01-20T01:51:09.310Z,100437.20
2024-01-20T01:53:36.661Z,100441.27
2024-01-20T01:56:06.041Z,100451.55
2024-01-20T01:58:32.773Z,100451.52
2024-01-20T02:01:00.458Z,100451.54
2024-01-20T02:03:27.474Z,100460.52
2024-01-20T02:05:54.747Z,100460.23
2024-01-20T02:08:21.698Z,100465.46
2024-01-20T02:10:48.717Z,100465.34
2024-01-20T02:13:16.126Z,100462.39
2024-01-20T02:15:43.775Z,100463.09
2024-01-20T02:18:10.808Z,100459.57
2024-01-20T02:20:37.558Z,100460.39
2024-01-20T02:23:04.231Z,100458.42
2024-01-20T02:25:30.825Z,100453.59
2024-01-20T02:27:57.444Z,100454.42
2024-01-20T02:30:24.073Z,100456.45
2024-01-20T02:32:50.982Z,100456.14
2024-01-20T02:35:20.297Z,100457.21
2024-01-20T02:37:47.393Z,100455.45
2024-01-20T02:40:14.036Z,100450.39
2024-01-20T02:42:40.853Z,100446.80
2024-01-20T02:45:08.115Z,100450.11
2024-01-20T02:47:34.994Z,100451.80
2024-01-20T02:50:01.892Z,100449.00
2024-01-20T02:52:28.604Z,100442.49
2024-01-20T02:54:55.188Z,100431.36
2024-01-20T02:57:21.899Z,100424.63
2024-01-20T02:59:48.778Z,100429.45
2024-01-20T03:02:15.407Z,100437.56
2024-01-20T03:04:42.048Z,100430.84
2024-01-20T03:07:08.703Z,100427.96
2024-01-20T03:09:35.369Z,100428.10
2024-01-20T03:12:02.909Z,100424.64
2024-01-20T03:14:29.820Z,100423.88
2024-01-20T03:17:02.511Z,100424.30
2024-01-20T03:19:29.123Z,100428.80
2024-01-20T03:21:55.953Z,100430.06
2024-01-20T03:24:22.691Z,100428.23
2024-01-20T03:26:50.501Z,100429.73
2024-01-20T03:29:17.545Z,100434.20
2024-01-20T03:31:44.385Z,100439.39
2024-01-20T03:34:11.375Z,100439.95
2024-01-20T03:36:38.318Z,100444.33
2024-01-20T03:39:05.302Z,100447.61
2024-01-20T03:41:32.547Z,100448.94
2024-01-20T03:43:59.333Z,100451.47
2024-01-20T03:46:26.152Z,100449.11
2024-01-20T03:48:53.090Z,100450.84
2024-01-20T03:51:20.133Z,100450.21
2024-01-20T03:53:46.855Z,100449.59
2024-01-20T03:56:13.444Z,100455.40
2024-01-20T03:58:40.069Z,100458.25
2024-01-20T04:01:06.726Z,100457.77
2024-01-20T04:03:33.490Z,100455.14
2024-01-20T04:06:00.311Z,100455.51
2024-01-20T04:08:26.978Z,100448.45
2024-01-20T04:10:53.676Z,100448.72
2024-01-20T04:13:20.392Z,100438.58
2024-01-20T04:15:47.451Z,100427.88
2024-01-20T04:18:14.336Z,100430.02
2024-01-20T04:20:41.176Z,100426.70
2024-01-20T04:23:07.819Z,100436.07
2024-01-20T04:25:34.481Z,100434.20
2024-01-20T04:28:01.387Z,100435.64
2024-01-20T04:30:28.034Z,100441.29
2024-01-20T04:32:54.969Z,100434.78
2024-01-20T04:35:21.889Z,100428.70
2024-01-20T04:37:48.549Z,100431.77
2024-01-20T04:40:15.225Z,100433.48
2024-01-20T04:42:41.844Z,100434.84
2024-01-20T04:45:09.798Z,100435.23
2024-01-20T04:47:36.776Z,100432.48
2024-01-20T04:50:03.650Z,100433.33
2024-01-20T04:52:30.286Z,100434.57
2024-01-20T04:54:56.935Z,100439.30
2024-01-20T04:57:23.723Z,100443.48
2024-01-20T04:59:50.409Z,100439.09
2024-01-20T05:02:17.221Z,100439.09
2024-01-20T05:04:44.634Z,100431.17
2024-01-20T05:07:11.599Z,100434.02
2024-01-20T05:09:38.430Z,100429.77
2024-01-20T05:12:05.727Z,100427.71
2024-01-20T05:14:32.397Z,100427.60
2024-01-20T05:16:59.061Z,100428.27
2024-01-20T05:19:26.121Z,100433.34
2024-01-20T05:21:52.880Z,100439.63
2024-01-20T05:24:19.630Z,100444.79
2024-01-20T05:26:46.296Z,100442.41
2024-01-20T05:29:13.013Z,100446.31
2024-01-20T05:31:39.814Z,100455.92
2024-01-20T05:34:06.758Z,100454.89
2024-01-20T05:36:33.622Z,100462.91
2024-01-20T05:39:00.420Z,100465.27
2024-01-20T05:41:27.042Z,100468.72
2024-01-20T05:43:53.940Z,100468.10
2024-01-20T05:46:21.462Z,100461.96
2024-01-20T05:48:50.007Z,100460.65
2024-01-20T05:51:16.779Z,100456.19
2024-01-20T05:53:43.689Z,100458.86
2024-01-20T05:56:10.359Z,100455.73
2024-01-20T05:58:37.041Z,100456.09
2024-01-20T06:01:04.118Z,100461.17
2024-01-20T06:03:31.346Z,100463.05
2024-01-20T06:05:58.075Z,100460.77
2024-01-20T06:08:24.764Z,100464.48
2024-01-20T06:10:52.484Z,100460.95
2024-01-20T06:13:20.041Z,100456.98
2024-01-20T06:15:46.676Z,100459.41
2024-01-20T06:18:13.695Z,100456.42
2024-01-20T06:20:40.561Z,100467.59
2024-01-20T06:23:07.259Z,100465.77
2024-01-20T06:25:33.937Z,100472.41
2024-01-20T06:28:00.556Z,100480.00
2024-01-20T06:30:27.165Z,100485.42
2024-01-20T06:32:53.908Z,100484.20
2024-01-20T06:35:20.652Z,100493.19
2024-01-20T06:37:47.329Z,100489.35
2024-01-20T06:40:14.658Z,100481.63
2024-01-20T06:42:41.329Z,100487.33
2024-01-20T06:45:08.843Z,100485.83
2024-01-20T06:47:35.718Z,100487.15
2024-01-20T06:50:03.901Z,100489.20
2024-01-20T06:52:32.496Z,100491.73
2024-01-20T06:54:59.432Z,100484.45
2024-01-20T06:57:26.272Z,100499.41
2024-01-20T06:59:52.887Z,100502.70
2024-01-20T07:02:19.476Z,100498.46
2024-01-20T07:04:46.126Z,100510.04
2024-01-20T07:07:13.681Z,100519.25
2024-01-20T07:09:41.242Z,100512.52
2024-01-20T07:12:08.851Z,100499.85
2024-01-20T07:14:36.647Z,100501.14
2024-01-20T07:17:03.690Z,100496.96
2024-01-20T07:19:31.093Z,100499.75
2024-01-20T07:21:58.217Z,100501.92
2024-01-20T07:24:24.854Z,100502.85
2024-01-20T07:26:51.505Z,100494.73
2024-01-20T07:29:18.155Z,100496.39
2024-01-20T07:31:44.756Z,100498.35
2024-01-20T07:34:11.463Z,100502.70
2024-01-20T07:36:38.864Z,100509.69
2024-01-20T07:39:05.783Z,100509.75
2024-01-20T07:41:32.554Z,100508.42
2024-01-20T07:43:59.160Z,100511.05
2024-01-20T07:46:25.822Z,100517.48
2024-01-20T07:48:52.524Z,100517.55
2024-01-20T07:51:19.320Z,100508.80
2024-01-20T07:53:45.974Z,100516.83
2024-01-20T07:56:13.883Z,100518.61
2024-01-20T07:58:40.532Z,100508.67
2024-01-20T08:01:07.206Z,100510.52
2024-01-20T08:03:33.904Z,100512.27
2024-01-20T08:06:01.656Z,100521.56
2024-01-20T08:08:28.337Z,100524.55
2024-01-20T08:10:54.995Z,100525.63
2024-01-20T08:13:22.005Z,100529.98
2024-01-20T08:15:48.653Z,100530.45
2024-01-20T08:18:15.566Z,100525.69
2024-01-20T08:20:42.357Z,100541.35
2024-01-20T08:23:09.520Z,100541.77
2024-01-20T08:25:36.169Z,100536.66
2024-01-20T08:28:02.879Z,100554.14
2024-01-20T08:30:29.977Z,100556.08
2024-01-20T08:33:01.668Z,100557.48
2024-01-20T08:35:30.307Z,100558.53
2024-01-20T08:37:57.026Z,100558.64
2024-01-20T08:40:24.511Z,100550.89
2024-01-20T08:42:51.159Z,100560.54
2024-01-20T08:45:17.809Z,100555.16
2024-01-20T08:47:44.739Z,100560.34
2024-01-20T08:50:11.730Z,100559.44
2024-01-20T08:52:39.421Z,100566.64
2024-01-20T08:55:06.606Z,100561.98
2024-01-20T08:57:34.615Z,100561.77
2024-01-20T09:00:02.197Z,100556.88
2024-01-20T09:02:29.325Z,100563.08
2024-01-20T09:04:57.076Z,100568.84
2024-01-20T09:07:23.755Z,100574.15
2024-01-20T09:09:50.411Z,100574.36
2024-01-20T09:12:17.041Z,100575.74
2024-01-20T09:14:44.122Z,100576.49
2024-01-20T09:17:10.854Z,100565.59
2024-01-20T09:19:37.566Z,100569.27
2024-01-20T09:22:04.747Z,100567.19
2024-01-20T09:24:31.398Z,100571.16
2024-01-20T09:26:58.107Z,100568.64
2024-01-20T09:29:24.946Z,100571.14
2024-01-20T09:31:51.771Z,100573.50
2024-01-20T09:34:18.529Z,100568.41
2024-01-20T09:36:46.529Z,100563.55
2024-01-20T09:39:13.639Z,100558.82
2024-01-20T09:41:40.455Z,100564.85
2024-01-20T09:44:13.557Z,100556.20
2024-01-20T09:46:40.466Z,100554.60
2024-01-20T09:49:07.638Z,100555.84
2024-01-20T09:51:34.498Z,100549.63
2024-01-20T09:54:02.118Z,100550.23
2024-01-20T09:56:29.658Z,100551.80
2024-01-20T09:59:04.210Z,100550.70
2024-01-20T10:01:32.252Z,100551.72
2024-01-20T10:04:04.144Z,100550.17
2024-01-20T10:06:31.645Z,100547.89
2024-01-20T10:08:59.048Z,100541.34
2024-01-20T10:11:27.007Z,100533.81
2024-01-20T10:13:53.689Z,100542.02
2024-01-20T10:16:22.112Z,100547.36
2024-01-20T10:18:50.071Z,100546.70
2024-01-20T10:21:16.819Z,100549.50
2024-01-20T10:23:43.657Z,100550.64
2024-01-20T10:26:10.758Z,100549.73
2024-01-20T10:28:37.435Z,100549.55
2024-01-20T10:31:09.923Z,100548.21
2024-01-20T10:33:37.272Z,100548.91
2024-01-20T10:36:05.311Z,100555.32
2024-01-20T10:38:37.999Z,100556.08
2024-01-20T10:41:08.233Z,100551.35
2024-01-20T10:43:41.150Z,100550.55
2024-01-20T10:46:22.390Z,100535.48
2024-01-20T10:48:54.423Z,100536.67
2024-01-20T10:51:27.523Z,100536.84
2024-01-20T10:53:57.016Z,100534.69
2024-01-20T10:56:25.557Z,100532.84
2024-01-20T10:59:09.621Z,100538.11
2024-01-20T11:01:41.396Z,100540.23
2024-01-20T11:04:09.019Z,100540.02
2024-01-20T11:06:37.423Z,100544.02
2024-01-20T11:09:04.289Z,100535.45
2024-01-20T11:11:36.074Z,100532.59
2024-01-20T11:14:03.002Z,100536.20
2024-01-20T11:16:34.413Z,100529.84
2024-01-20T11:19:13.355Z,100533.95
2024-01-20T11:21:40.822Z,100535.45
2024-01-20T11:24:08.190Z,100531.20
2024-01-20T11:26:37.286Z,100531.73
2024-01-20T11:29:06.356Z,100522.59
2024-01-20T11:31:33.589Z,100520.96
2024-01-20T11:34:03.164Z,100522.42
2024-01-20T11:36:31.227Z,100520.27
2024-01-20T11:38:59.578Z,100526.02
2024-01-20T11:41:26.799Z,100514.93
2024-01-20T11:43:54.155Z,100514.55
2024-01-20T11:46:21.773Z,100510.54
2024-01-20T11:48:49.065Z,100510.98
2024-01-20T11:51:17.105Z,100504.27
2024-01-20T11:53:45.113Z,100505.85
2024-01-20T11:56:12.035Z,100502.58
2024-01-20T11:58:39.005Z,100503.27
2024-01-20T12:01:06.125Z,100500.86
2024-01-20T12:03:33.586Z,100498.11
2024-01-20T12:06:12.906Z,100500.16
2024-01-20T12:08:46.343Z,100498.53
2024-01-20T12:11:20.565Z,100496.15
2024-01-20T12:13:50.793Z,100492.77
2024-01-20T12:16:18.414Z,100484.00
2024-01-20T12:18:45.786Z,100481.35
2024-01-20T12:21:12.724Z,100478.23
2024-01-20T12:23:39.812Z,100476.73
2024-01-20T12:26:17.318Z,100482.83
2024-01-20T12:28:46.523Z,100488.40
2024-01-20T12:31:16.801Z,100493.95
2024-01-20T12:33:45.437Z,100494.77
2024-01-20T12:36:12.732Z,100492.52
2024-01-20T12:38:39.536Z,100492.89
2024-01-20T12:41:06.261Z,100493.75
2024-01-20T12:43:33.216Z,100492.61
2024-01-20T12:45:59.904Z,100489.77
2024-01-20T12:48:26.811Z,100491.11
2024-01-20T12:50:53.779Z,100491.58
2024-01-20T12:53:20.484Z,100485.15
2024-01-20T12:55:47.112Z,100485.56
2024-01-20T12:58:13.788Z,100497.52
2024-01-20T13:00:40.461Z,100494.06
2024-01-20T13:03:07.221Z,100504.39
2024-01-20T13:05:34.217Z,100504.05
2024-01-20T13:08:01.035Z,100497.63
2024-01-20T13:10:29.094Z,100484.00
2024-01-20T13:12:55.739Z,100488.41
2024-01-20T13:15:24.963Z,100481.39
2024-01-20T13:17:51.794Z,100487.27
2024-01-20T13:20:18.802Z,100490.75
2024-01-20T13:22:45.538Z,100488.91
2024-01-20T13:25:13.527Z,100490.73
2024-01-20T13:27:40.258Z,100487.59
2024-01-20T13:30:07.823Z,100485.20
2024-01-20T13:32:34.808Z,100490.45
2024-01-20T13:35:01.773Z,100484.05
2024-01-20T13:37:28.388Z,100482.81
2024-01-20T13:39:55.115Z,100477.70
2024-01-20T13:42:22.088Z,100474.30
2024-01-20T13:44:48.895Z,100470.12
2024-01-20T13:47:15.591Z,100469.15
2024-01-20T13:49:42.671Z,100474.05
2024-01-20T13:52:09.404Z,100464.19
2024-01-20T13:54:42.081Z,100469.71
2024-01-20T13:57:11.808Z,100467.44
2024-01-20T13:59:38.722Z,100467.33
2024-01-20T14:02:05.422Z,100482.55
2024-01-20T14:04:32.149Z,100480.15
2024-01-20T14:07:03.410Z,100484.27
2024-01-20T14:09:32.487Z,100492.13
2024-01-20T14:11:59.361Z,100499.42
2024-01-20T14:14:26.043Z,100505.86
2024-01-20T14:17:00.979Z,100503.85
2024-01-20T14:19:30.746Z,100510.22
2024-01-20T14:21:57.499Z,100509.29
2024-01-20T14:24:24.287Z,100504.52
2024-01-20T14:26:51.072Z,100514.23
2024-01-20T14:29:20.192Z,100517.89
2024-01-20T14:31:53.378Z,100527.67
2024-01-20T14:34:21.755Z,100528.20
2024-01-20T14:36:52.478Z,100526.52
2024-01-20T14:39:19.385Z,100521.15
2024-01-20T14:41:47.156Z,100524.96
2024-01-20T14:44:14.280Z,100526.31
2024-01-20T14:46:41.457Z,100521.84
2024-01-20T14:49:09.048Z,100520.40
2024-01-20T14:51:36.470Z,100528.95
2024-01-20T14:54:04.390Z,100530.81
2024-01-20T14:56:32.398Z,100531.09
2024-01-20T14:59:04.283Z,100532.06
2024-01-20T15:01:31.859Z,100530.80
2024-01-20T15:03:58.702Z,100521.71
2024-01-20T15:06:26.883Z,100534.60
2024-01-20T15:08:54.775Z,100540.63
2024-01-20T15:11:21.390Z,100545.69
2024-01-20T15:13:48.222Z,100543.86
2024-01-20T15:16:15.055Z,100537.64
2024-01-20T15:18:41.835Z,100549.61
2024-01-20T15:21:08.961Z,100562.14
2024-01-20T15:23:35.725Z,100558.25
2024-01-20T15:26:02.705Z,100544.15
2024-01-20T15:28:29.802Z,100555.71
2024-01-20T15:30:56.505Z,100561.85
2024-01-20T15:33:23.610Z,100563.67
2024-01-20T15:35:50.451Z,100547.54
2024-01-20T15:38:17.106Z,100560.69
2024-01-20T15:40:44.702Z,100567.48
2024-01-20T15:43:11.593Z,100561.17
2024-01-20T15:45:39.171Z,100550.85
2024-01-20T15:48:08.723Z,100565.22
2024-01-20T15:50:35.558Z,100575.77
2024-01-20T15:53:02.254Z,100568.82
2024-01-20T15:55:28.977Z,100568.34
2024-01-20T15:57:55.607Z,100585.59
2024-01-20T16:00:22.613Z,100589.15
2024-01-20T16:02:50.062Z,100584.75
2024-01-20T16:05:17.496Z,100580.80
2024-01-20T16:07:44.937Z,100594.48
2024-01-20T16:10:11.674Z,100596.28
2024-01-20T16:12:38.457Z,100591.88
2024-01-20T16:15:06.072Z,100584.65
2024-01-20T16:17:33.149Z,100583.15
2024-01-20T16:20:00.673Z,100586.41
2024-01-20T16:22:28.822Z,100599.56
2024-01-20T16:24:56.566Z,100602.31
2024-01-20T16:27:23.249Z,100606.63
2024-01-20T16:29:49.911Z,100609.91
2024-01-20T16:32:16.999Z,100611.72
2024-01-20T16:34:43.848Z,100604.96
2024-01-20T16:37:10.658Z,100603.91
2024-01-20T16:39:37.586Z,100618.38
2024-01-20T16:42:04.913Z,100616.27
2024-01-20T16:44:31.633Z,100615.52
2024-01-20T16:46:58.264Z,100620.33
2024-01-20T16:49:25.968Z,100626.91
2024-01-20T16:51:52.769Z,100625.84
2024-01-20T16:54:19.637Z,100617.55
2024-01-20T16:56:46.419Z,100620.08
2024-01-20T16:59:13.241Z,100621.34
2024-01-20T17:01:39.933Z,100628.91
2024-01-20T17:04:07.153Z,100625.20
2024-01-20T17:06:34.348Z,100621.13
2024-01-20T17:09:02.267Z,100630.09
2024-01-20T17:11:29.052Z,100640.71
2024-01-20T17:13:56.115Z,100630.09
2024-01-20T17:16:22.785Z,100635.66
2024-01-20T17:18:49.580Z,100642.50
2024-01-20T17:21:18.136Z,100643.73
2024-01-20T17:23:45.070Z,100658.34
2024-01-20T17:26:12.197Z,100663.78
2024-01-20T17:28:38.877Z,100658.19
2024-01-20T17:31:05.935Z,100654.05
2024-01-20T17:33:32.863Z,100662.77
2024-01-20T17:35:59.580Z,100663.52
2024-01-20T17:38:26.241Z,100668.92
2024-01-20T17:40:52.873Z,100682.98
2024-01-20T17:43:19.578Z,100679.91
2024-01-20T17:45:50.296Z,100687.90
2024-01-20T17:48:17.691Z,100684.14
2024-01-20T17:50:44.900Z,100695.76
2024-01-20T17:53:13.697Z,100697.70
2024-01-20T17:55:41.098Z,100703.08
2024-01-20T17:58:10.139Z,100705.88
2024-01-20T18:00:38.190Z,100711.17
2024-01-20T18:03:05.358Z,100712.10
2024-01-20T18:05:32.111Z,100715.71
2024-01-20T18:07:58.895Z,100715.91
2024-01-20T18:10:26.080Z,100707.70
2024-01-20T18:12:52.699Z,100715.08
2024-01-20T18:15:19.734Z,100724.19
2024-01-20T18:17:46.845Z,100737.23
2024-01-20T18:20:14.138Z,100734.65
2024-01-20T18:22:42.331Z,100740.48
2024-01-20T18:25:09.099Z,100750.84
2024-01-20T18:27:36.600Z,100752.36
2024-01-20T18:30:03.729Z,100744.07
2024-01-20T18:32:30.532Z,100752.47
2024-01-20T18:34:57.775Z,100755.28
2024-01-20T18:37:24.663Z,100761.19
2024-01-20T18:39:52.311Z,100769.25
2024-01-20T18:42:21.226Z,100775.69
2024-01-20T18:44:50.000Z,100773.42
2024-01-20T18:47:17.287Z,100779.52
2024-01-20T18:49:44.846Z,100782.45
2024-01-20T18:52:12.111Z,100795.84
2024-01-20T18:54:39.388Z,100806.16
2024-01-20T18:57:09.260Z,100811.34
2024-01-20T18:59:35.966Z,100818.99
2024-01-20T19:02:02.645Z,100836.45
2024-01-20T19:04:29.535Z,100837.75
2024-01-20T19:06:59.635Z,100844.21
2024-01-20T19:09:27.204Z,100848.98
2024-01-20T19:11:57.381Z,100852.86
2024-01-20T19:14:24.392Z,100849.09
2024-01-20T19:16:51.112Z,100858.27
2024-01-20T19:19:20.291Z,100866.67
2024-01-20T19:21:48.489Z,100872.40
2024-01-20T19:24:16.067Z,100877.70
2024-01-20T19:26:43.039Z,100883.95
2024-01-20T19:29:11.122Z,100883.45
2024-01-20T19:31:39.682Z,100883.60
2024-01-20T19:34:07.202Z,100876.23
2024-01-20T19:36:34.169Z,100889.73
2024-01-20T19:39:03.942Z,100895.24
2024-01-20T19:41:32.713Z,100904.36
2024-01-20T19:43:59.534Z,100899.63
2024-01-20T19:46:26.301Z,100913.46
2024-01-20T19:48:53.129Z,100926.64
2024-01-20T19:51:20.245Z,100924.16
2024-01-20T19:53:46.991Z,100922.94
2024-01-20T19:56:16.455Z,100928.57
2024-01-20T19:58:43.133Z,100929.19
2024-01-20T20:01:10.151Z,100931.45
2024-01-20T20:03:37.021Z,100934.27
2024-01-20T20:06:03.961Z,100938.15
2024-01-20T20:08:31.118Z,100950.27
2024-01-20T20:10:57.886Z,100951.97
2024-01-20T20:13:27.566Z,100955.73
2024-01-20T20:15:55.709Z,100954.27
2024-01-20T20:18:22.704Z,100954.29
2024-01-20T20:20:49.611Z,100965.11
2024-01-20T20:23:16.478Z,100972.35
2024-01-20T20:25:43.451Z,100972.98
2024-01-20T20:28:10.415Z,100977.34
2024-01-20T20:30:37.065Z,100973.47
2024-01-20T20:33:04.460Z,100987.98
2024-01-20T20:35:32.189Z,100990.33
2024-01-20T20:37:59.514Z,100995.09
2024-01-20T20:40:26.210Z,101000.41
2024-01-20T20:42:52.967Z,101009.36
2024-01-20T20:45:20.030Z,101012.12
2024-01-20T20:47:47.063Z,101009.47
2024-01-20T20:50:17.845Z,101024.73
2024-01-20T20:52:46.421Z,101029.31
2024-01-20T20:55:13.622Z,101023.96
2024-01-20T20:57:41.308Z,101027.10
2024-01-20T21:00:14.145Z,101042.44
2024-01-20T21:02:41.436Z,101046.45
2024-01-20T21:05:14.939Z,101055.67
2024-01-20T21:07:41.858Z,101061.84
2024-01-20T21:10:09.160Z,101067.40
2024-01-20T21:12:35.883Z,101074.16
2024-01-20T21:15:02.668Z,101074.73
2024-01-20T21:17:30.732Z,101086.80
2024-01-20T21:19:57.822Z,101095.23
2024-01-20T21:22:24.802Z,101087.23
2024-01-20T21:24:51.545Z,101089.46
2024-01-20T21:27:20.551Z,101105.88
2024-01-20T21:29:47.269Z,101101.20
2024-01-20T21:32:13.961Z,101107.45
2024-01-20T21:34:40.923Z,101115.06
2024-01-20T21:37:07.606Z,101116.52
2024-01-20T21:39:34.231Z,101123.30
2024-01-20T21:42:00.891Z,101127.90
2024-01-20T21:44:27.738Z,101133.26
2024-01-20T21:46:55.150Z,101139.54
2024-01-20T21:49:22.691Z,101144.59
2024-01-20T21:51:49.988Z,101148.29
2024-01-20T21:54:16.785Z,101150.48
2024-01-20T21:56:43.441Z,101152.81
2024-01-20T21:59:10.033Z,101155.39
2024-01-20T22:01:37.105Z,101159.84
2024-01-20T22:04:04.782Z,101163.91
2024-01-20T22:06:31.624Z,101167.81
2024-01-20T22:08:58.319Z,101176.27
2024-01-20T22:11:25.560Z,101178.77
2024-01-20T22:13:52.203Z,101182.30
2024-01-20T22:16:18.936Z,101184.04
2024-01-20T22:18:46.788Z,101192.02
2024-01-20T22:21:14.984Z,101199.86
2024-01-20T22:23:43.711Z,101205.89
2024-01-20T22:26:20.618Z,101208.48
2024-01-20T22:28:48.146Z,101209.63
2024-01-20T22:31:15.320Z,101219.13
2024-01-20T22:33:42.344Z,101225.73
2024-01-20T22:36:10.580Z,101233.83
2024-01-20T22:38:37.386Z,101239.23
2024-01-20T22:41:06.110Z,101245.05
2024-01-20T22:43:32.834Z,101247.23
2024-01-20T22:45:59.567Z,101253.52
2024-01-20T22:48:28.502Z,101251.84
2024-01-20T22:50:56.470Z,101250.02
2024-01-20T22:53:23.120Z,101254.95
2024-01-20T22:55:49.760Z,101258.81
2024-01-20T22:58:16.411Z,101263.14
2024-01-20T23:00:44.277Z,101262.33
2024-01-20T23:03:11.227Z,101267.21
2024-01-20T23:05:40.115Z,101270.73
2024-01-20T23:08:09.635Z,101273.66
2024-01-20T23:10:36.333Z,101281.07
2024-01-20T23:13:03.118Z,101278.08
2024-01-20T23:15:30.531Z,101278.63
2024-01-20T23:17:57.256Z,101285.13
2024-01-20T23:20:23.905Z,101289.98
2024-01-20T23:22:50.640Z,101293.05
2024-01-20T23:25:17.315Z,101292.19
2024-01-20T23:27:44.094Z,101296.92
2024-01-20T23:30:12.700Z,101297.11
2024-01-20T23:32:41.548Z,101305.09
2024-01-20T23:35:08.808Z,101308.94
2024-01-20T23:37:35.653Z,101309.23
2024-01-20T23:40:03.122Z,101310.37
2024-01-20T23:42:30.452Z,101313.39
2024-01-20T23:44:57.881Z,101323.06
2024-01-20T23:47:24.533Z,101327.31
2024-01-20T23:49:51.191Z,101334.64
2024-01-20T23:52:17.850Z,101342.40
2024-01-20T23:54:44.551Z,101347.58
2024-01-20T23:57:11.258Z,101353.81
2024-01-20T23:59:37.876Z,101357.48
